sensor_id;sensor_type;location;lat;lon;timestamp;P1;durP1;ratioP1;P2;durP2;ratioP2
41623;SDS011;27319;50.306;18.926;2023-11-19T00:02:57;57.25;;;26.95;;
41623;SDS011;27319;50.306;18.926;2023-11-19T00:06:58;72.97;;;32.60;;
41623;SDS011;27319;50.306;18.926;2023-11-19T00:11:04;46.15;;;23.30;;
41623;SDS011;27319;50.306;18.926;2023-11-19T00:14:05;45.80;;;22.60;;
41623;SDS011;27319;50.306;18.926;2023-11-19T00:17:09;53.50;;;26.80;;
41623;SDS011;27319;50.306;18.926;2023-11-19T00:21:09;61.30;;;29.65;;
41623;SDS011;27319;50.306;18.926;2023-11-19T00:25:10;55.55;;;26.23;;
41623;SDS011;27319;50.306;18.926;2023-11-19T00:29:11;37.63;;;20.85;;
41623;SDS011;27319;50.306;18.926;2023-11-19T00:32:14;38.50;;;22.52;;
41623;SDS011;27319;50.306;18.926;2023-11-19T00:36:14;51.67;;;27.88;;
41623;SDS011;27319;50.306;18.926;2023-11-19T00:40:15;54.55;;;26.65;;
41623;SDS011;27319;50.306;18.926;2023-11-19T00:44:16;46.47;;;24.95;;
41623;SDS011;27319;50.306;18.926;2023-11-19T00:48:17;44.92;;;24.42;;
41623;SDS011;27319;50.306;18.926;2023-11-19T00:52:18;52.22;;;25.63;;
41623;SDS011;27319;50.306;18.926;2023-11-19T00:56:19;53.95;;;27.80;;
41623;SDS011;27319;50.306;18.926;2023-11-19T01:00:19;60.00;;;30.02;;
41623;SDS011;27319;50.306;18.926;2023-11-19T01:04:20;64.03;;;30.42;;
41623;SDS011;27319;50.306;18.926;2023-11-19T01:08:21;56.88;;;26.75;;
41623;SDS011;27319;50.306;18.926;2023-11-19T01:12:21;60.35;;;25.75;;
41623;SDS011;27319;50.306;18.926;2023-11-19T01:16:22;53.25;;;26.25;;
41623;SDS011;27319;50.306;18.926;2023-11-19T01:20:23;56.22;;;28.85;;
41623;SDS011;27319;50.306;18.926;2023-11-19T01:24:24;55.08;;;28.17;;
41623;SDS011;27319;50.306;18.926;2023-11-19T01:28:24;50.40;;;24.70;;
41623;SDS011;27319;50.306;18.926;2023-11-19T01:32:25;52.30;;;25.35;;
41623;SDS011;27319;50.306;18.926;2023-11-19T01:36:26;51.85;;;24.15;;
41623;SDS011;27319;50.306;18.926;2023-11-19T01:40:27;55.95;;;25.73;;
41623;SDS011;27319;50.306;18.926;2023-11-19T01:44:27;57.38;;;27.02;;
41623;SDS011;27319;50.306;18.926;2023-11-19T01:48:38;54.70;;;24.48;;
41623;SDS011;27319;50.306;18.926;2023-11-19T01:52:38;48.03;;;24.80;;
41623;SDS011;27319;50.306;18.926;2023-11-19T01:56:39;45.38;;;22.85;;
41623;SDS011;27319;50.306;18.926;2023-11-19T02:00:40;38.35;;;21.70;;
41623;SDS011;27319;50.306;18.926;2023-11-19T02:04:40;41.35;;;21.60;;
41623;SDS011;27319;50.306;18.926;2023-11-19T02:08:41;47.38;;;23.52;;
41623;SDS011;27319;50.306;18.926;2023-11-19T02:12:42;41.90;;;22.20;;
41623;SDS011;27319;50.306;18.926;2023-11-19T02:16:43;47.35;;;22.67;;
41623;SDS011;27319;50.306;18.926;2023-11-19T02:20:43;48.33;;;20.60;;
41623;SDS011;27319;50.306;18.926;2023-11-19T02:24:44;42.00;;;20.88;;
41623;SDS011;27319;50.306;18.926;2023-11-19T02:28:45;42.78;;;20.85;;
41623;SDS011;27319;50.306;18.926;2023-11-19T02:32:45;40.03;;;20.67;;
41623;SDS011;27319;50.306;18.926;2023-11-19T02:36:46;43.63;;;23.48;;
41623;SDS011;27319;50.306;18.926;2023-11-19T02:40:47;47.63;;;23.35;;
41623;SDS011;27319;50.306;18.926;2023-11-19T02:44:48;47.20;;;23.10;;
41623;SDS011;27319;50.306;18.926;2023-11-19T02:48:48;46.13;;;22.77;;
41623;SDS011;27319;50.306;18.926;2023-11-19T02:52:49;48.97;;;23.60;;
41623;SDS011;27319;50.306;18.926;2023-11-19T02:56:50;41.17;;;22.00;;
41623;SDS011;27319;50.306;18.926;2023-11-19T03:00:51;46.80;;;24.27;;
41623;SDS011;27319;50.306;18.926;2023-11-19T03:04:51;44.90;;;23.02;;
41623;SDS011;27319;50.306;18.926;2023-11-19T03:08:52;46.17;;;24.38;;
41623;SDS011;27319;50.306;18.926;2023-11-19T03:12:53;48.50;;;24.40;;
41623;SDS011;27319;50.306;18.926;2023-11-19T03:16:54;48.08;;;23.98;;
41623;SDS011;27319;50.306;18.926;2023-11-19T03:20:54;48.40;;;22.88;;
41623;SDS011;27319;50.306;18.926;2023-11-19T03:24:55;39.08;;;21.48;;
41623;SDS011;27319;50.306;18.926;2023-11-19T03:28:56;42.13;;;21.85;;
41623;SDS011;27319;50.306;18.926;2023-11-19T03:32:57;41.97;;;20.88;;
41623;SDS011;27319;50.306;18.926;2023-11-19T03:36:57;43.47;;;22.42;;
41623;SDS011;27319;50.306;18.926;2023-11-19T03:40:40;38.72;;;21.42;;
41623;SDS011;27319;50.306;18.926;2023-11-19T03:44:41;43.97;;;21.90;;
41623;SDS011;27319;50.306;18.926;2023-11-19T03:48:42;50.55;;;23.13;;
41623;SDS011;27319;50.306;18.926;2023-11-19T03:52:43;41.15;;;21.08;;
41623;SDS011;27319;50.306;18.926;2023-11-19T03:56:43;43.53;;;22.75;;
41623;SDS011;27319;50.306;18.926;2023-11-19T04:00:44;43.72;;;21.13;;
41623;SDS011;27319;50.306;18.926;2023-11-19T04:04:45;45.13;;;23.23;;
41623;SDS011;27319;50.306;18.926;2023-11-19T04:08:46;44.90;;;23.88;;
41623;SDS011;27319;50.306;18.926;2023-11-19T04:12:47;41.28;;;24.15;;
41623;SDS011;27319;50.306;18.926;2023-11-19T04:16:47;52.17;;;26.17;;
41623;SDS011;27319;50.306;18.926;2023-11-19T04:20:48;49.95;;;24.90;;
41623;SDS011;27319;50.306;18.926;2023-11-19T04:24:49;44.08;;;23.05;;
41623;SDS011;27319;50.306;18.926;2023-11-19T04:28:49;42.95;;;23.33;;
41623;SDS011;27319;50.306;18.926;2023-11-19T04:32:50;44.53;;;22.83;;
41623;SDS011;27319;50.306;18.926;2023-11-19T04:36:51;48.20;;;24.92;;
41623;SDS011;27319;50.306;18.926;2023-11-19T04:40:52;45.42;;;22.92;;
41623;SDS011;27319;50.306;18.926;2023-11-19T04:44:53;45.55;;;23.95;;
41623;SDS011;27319;50.306;18.926;2023-11-19T04:48:53;46.92;;;22.50;;
41623;SDS011;27319;50.306;18.926;2023-11-19T04:52:54;45.72;;;23.42;;
41623;SDS011;27319;50.306;18.926;2023-11-19T04:56:55;47.25;;;24.75;;
41623;SDS011;27319;50.306;18.926;2023-11-19T05:00:56;48.80;;;24.10;;
41623;SDS011;27319;50.306;18.926;2023-11-19T05:04:56;55.28;;;24.90;;
41623;SDS011;27319;50.306;18.926;2023-11-19T05:08:58;45.40;;;24.35;;
41623;SDS011;27319;50.306;18.926;2023-11-19T05:12:57;46.13;;;24.60;;
41623;SDS011;27319;50.306;18.926;2023-11-19T05:16:58;44.45;;;23.30;;
41623;SDS011;27319;50.306;18.926;2023-11-19T05:20:59;49.75;;;23.77;;
41623;SDS011;27319;50.306;18.926;2023-11-19T05:24:59;43.88;;;22.70;;
41623;SDS011;27319;50.306;18.926;2023-11-19T05:29:00;44.03;;;22.65;;
41623;SDS011;27319;50.306;18.926;2023-11-19T05:33:01;46.10;;;22.98;;
41623;SDS011;27319;50.306;18.926;2023-11-19T05:36:25;46.75;;;23.92;;
41623;SDS011;27319;50.306;18.926;2023-11-19T05:39:27;48.97;;;24.42;;
41623;SDS011;27319;50.306;18.926;2023-11-19T05:42:28;40.83;;;22.98;;
41623;SDS011;27319;50.306;18.926;2023-11-19T05:45:29;43.53;;;23.08;;
41623;SDS011;27319;50.306;18.926;2023-11-19T05:49:30;42.35;;;22.20;;
41623;SDS011;27319;50.306;18.926;2023-11-19T05:53:30;41.45;;;21.85;;
41623;SDS011;27319;50.306;18.926;2023-11-19T05:57:31;44.17;;;22.92;;
41623;SDS011;27319;50.306;18.926;2023-11-19T06:01:33;44.97;;;23.55;;
41623;SDS011;27319;50.306;18.926;2023-11-19T06:05:33;45.50;;;23.77;;
41623;SDS011;27319;50.306;18.926;2023-11-19T06:09:33;42.05;;;23.35;;
41623;SDS011;27319;50.306;18.926;2023-11-19T06:13:34;40.75;;;22.25;;
41623;SDS011;27319;50.306;18.926;2023-11-19T06:17:35;48.28;;;23.63;;
41623;SDS011;27319;50.306;18.926;2023-11-19T06:21:36;49.08;;;23.98;;
41623;SDS011;27319;50.306;18.926;2023-11-19T06:25:36;45.25;;;23.27;;
41623;SDS011;27319;50.306;18.926;2023-11-19T06:29:37;39.50;;;22.25;;
41623;SDS011;27319;50.306;18.926;2023-11-19T06:33:38;45.70;;;23.13;;
41623;SDS011;27319;50.306;18.926;2023-11-19T06:37:39;48.70;;;24.85;;
41623;SDS011;27319;50.306;18.926;2023-11-19T06:41:44;47.45;;;24.30;;
41623;SDS011;27319;50.306;18.926;2023-11-19T06:44:46;48.50;;;25.73;;
41623;SDS011;27319;50.306;18.926;2023-11-19T06:47:47;54.55;;;27.25;;
41623;SDS011;27319;50.306;18.926;2023-11-19T06:51:48;49.95;;;26.25;;
41623;SDS011;27319;50.306;18.926;2023-11-19T06:55:49;58.28;;;29.33;;
41623;SDS011;27319;50.306;18.926;2023-11-19T07:00:02;54.35;;;28.25;;
41623;SDS011;27319;50.306;18.926;2023-11-19T07:04:02;55.25;;;26.52;;
41623;SDS011;27319;50.306;18.926;2023-11-19T07:08:03;57.35;;;29.83;;
41623;SDS011;27319;50.306;18.926;2023-11-19T07:12:06;57.35;;;27.65;;
41623;SDS011;27319;50.306;18.926;2023-11-19T07:16:07;60.75;;;28.77;;
41623;SDS011;27319;50.306;18.926;2023-11-19T07:20:08;57.75;;;31.45;;
41623;SDS011;27319;50.306;18.926;2023-11-19T07:23:09;59.97;;;30.73;;
41623;SDS011;27319;50.306;18.926;2023-11-19T07:26:10;62.60;;;30.92;;
41623;SDS011;27319;50.306;18.926;2023-11-19T07:29:11;63.10;;;31.17;;
41623;SDS011;27319;50.306;18.926;2023-11-19T07:33:12;57.38;;;29.38;;
41623;SDS011;27319;50.306;18.926;2023-11-19T07:37:13;57.97;;;30.35;;
41623;SDS011;27319;50.306;18.926;2023-11-19T07:41:14;59.85;;;31.20;;
41623;SDS011;27319;50.306;18.926;2023-11-19T07:45:15;60.85;;;30.75;;
41623;SDS011;27319;50.306;18.926;2023-11-19T07:49:15;55.65;;;28.55;;
41623;SDS011;27319;50.306;18.926;2023-11-19T07:53:16;53.78;;;28.63;;
41623;SDS011;27319;50.306;18.926;2023-11-19T07:57:17;52.72;;;28.25;;
41623;SDS011;27319;50.306;18.926;2023-11-19T08:01:18;51.42;;;27.58;;
41623;SDS011;27319;50.306;18.926;2023-11-19T08:05:19;50.53;;;25.90;;
41623;SDS011;27319;50.306;18.926;2023-11-19T08:09:19;51.65;;;26.80;;
41623;SDS011;27319;50.306;18.926;2023-11-19T08:13:20;50.42;;;24.65;;
41623;SDS011;27319;50.306;18.926;2023-11-19T08:17:21;50.75;;;25.83;;
41623;SDS011;27319;50.306;18.926;2023-11-19T08:21:22;51.00;;;26.67;;
41623;SDS011;27319;50.306;18.926;2023-11-19T08:25:23;47.70;;;25.90;;
41623;SDS011;27319;50.306;18.926;2023-11-19T08:29:23;49.35;;;23.83;;
41623;SDS011;27319;50.306;18.926;2023-11-19T08:33:25;48.10;;;25.02;;
41623;SDS011;27319;50.306;18.926;2023-11-19T08:37:25;48.00;;;25.02;;
41623;SDS011;27319;50.306;18.926;2023-11-19T08:40:26;45.72;;;24.27;;
41623;SDS011;27319;50.306;18.926;2023-11-19T08:43:27;40.20;;;22.52;;
41623;SDS011;27319;50.306;18.926;2023-11-19T08:47:08;42.22;;;22.38;;
41623;SDS011;27319;50.306;18.926;2023-11-19T08:51:08;41.45;;;22.33;;
41623;SDS011;27319;50.306;18.926;2023-11-19T08:55:09;38.28;;;20.77;;
41623;SDS011;27319;50.306;18.926;2023-11-19T08:59:10;39.05;;;19.52;;
41623;SDS011;27319;50.306;18.926;2023-11-19T09:03:11;37.47;;;19.42;;
41623;SDS011;27319;50.306;18.926;2023-11-19T09:07:15;39.40;;;20.50;;
41623;SDS011;27319;50.306;18.926;2023-11-19T09:11:16;40.80;;;22.15;;
41623;SDS011;27319;50.306;18.926;2023-11-19T09:14:17;42.17;;;22.05;;
41623;SDS011;27319;50.306;18.926;2023-11-19T09:17:19;33.70;;;20.67;;
41623;SDS011;27319;50.306;18.926;2023-11-19T09:21:19;38.83;;;20.63;;
41623;SDS011;27319;50.306;18.926;2023-11-19T09:25:20;42.30;;;22.60;;
41623;SDS011;27319;50.306;18.926;2023-11-19T09:29:21;43.78;;;21.08;;
41623;SDS011;27319;50.306;18.926;2023-11-19T09:33:22;37.55;;;21.35;;
41623;SDS011;27319;50.306;18.926;2023-11-19T09:37:23;35.25;;;19.65;;
41623;SDS011;27319;50.306;18.926;2023-11-19T09:41:23;38.00;;;19.75;;
41623;SDS011;27319;50.306;18.926;2023-11-19T09:45:25;34.30;;;19.13;;
41623;SDS011;27319;50.306;18.926;2023-11-19T09:49:25;31.98;;;18.67;;
41623;SDS011;27319;50.306;18.926;2023-11-19T09:52:46;33.70;;;20.33;;
41623;SDS011;27319;50.306;18.926;2023-11-19T09:55:48;35.38;;;19.50;;
41623;SDS011;27319;50.306;18.926;2023-11-19T09:59:48;35.00;;;19.38;;
41623;SDS011;27319;50.306;18.926;2023-11-19T10:03:49;39.15;;;19.48;;
41623;SDS011;27319;50.306;18.926;2023-11-19T10:07:50;32.15;;;17.75;;
41623;SDS011;27319;50.306;18.926;2023-11-19T10:11:51;39.75;;;20.10;;
41623;SDS011;27319;50.306;18.926;2023-11-19T10:14:55;41.17;;;20.33;;
41623;SDS011;27319;50.306;18.926;2023-11-19T10:17:57;39.97;;;19.25;;
41623;SDS011;27319;50.306;18.926;2023-11-19T10:20:58;39.17;;;19.38;;
41623;SDS011;27319;50.306;18.926;2023-11-19T10:23:59;32.40;;;17.15;;
41623;SDS011;27319;50.306;18.926;2023-11-19T10:27:58;36.80;;;20.33;;
41623;SDS011;27319;50.306;18.926;2023-11-19T10:30:59;37.65;;;19.77;;
41623;SDS011;27319;50.306;18.926;2023-11-19T10:35:06;35.67;;;18.90;;
41623;SDS011;27319;50.306;18.926;2023-11-19T10:39:06;37.85;;;19.20;;
41623;SDS011;27319;50.306;18.926;2023-11-19T10:42:15;36.78;;;18.58;;
41623;SDS011;27319;50.306;18.926;2023-11-19T10:46:16;37.13;;;19.55;;
41623;SDS011;27319;50.306;18.926;2023-11-19T10:49:21;40.38;;;21.17;;
41623;SDS011;27319;50.306;18.926;2023-11-19T10:53:22;38.58;;;20.95;;
41623;SDS011;27319;50.306;18.926;2023-11-19T10:57:22;39.30;;;20.58;;
41623;SDS011;27319;50.306;18.926;2023-11-19T11:00:34;41.40;;;21.77;;
41623;SDS011;27319;50.306;18.926;2023-11-19T11:04:31;37.30;;;21.13;;
41623;SDS011;27319;50.306;18.926;2023-11-19T11:08:08;40.08;;;22.00;;
41623;SDS011;27319;50.306;18.926;2023-11-19T11:11:56;47.13;;;22.65;;
41623;SDS011;27319;50.306;18.926;2023-11-19T11:15:57;43.70;;;23.38;;
41623;SDS011;27319;50.306;18.926;2023-11-19T11:19:58;45.25;;;23.48;;
41623;SDS011;27319;50.306;18.926;2023-11-19T11:32:04;45.15;;;23.92;;
41623;SDS011;27319;50.306;18.926;2023-11-19T11:36:05;43.45;;;23.13;;
41623;SDS011;27319;50.306;18.926;2023-11-19T11:40:02;46.88;;;24.25;;
41623;SDS011;27319;50.306;18.926;2023-11-19T11:44:02;41.28;;;22.35;;
41623;SDS011;27319;50.306;18.926;2023-11-19T11:48:09;53.28;;;24.95;;
41623;SDS011;27319;50.306;18.926;2023-11-19T11:52:09;48.80;;;25.58;;
41623;SDS011;27319;50.306;18.926;2023-11-19T11:56:10;50.03;;;25.58;;
41623;SDS011;27319;50.306;18.926;2023-11-19T12:00:17;52.72;;;27.73;;
41623;SDS011;27319;50.306;18.926;2023-11-19T12:04:17;60.85;;;30.08;;
41623;SDS011;27319;50.306;18.926;2023-11-19T12:08:19;59.25;;;28.73;;
41623;SDS011;27319;50.306;18.926;2023-11-19T12:12:22;59.10;;;30.58;;
41623;SDS011;27319;50.306;18.926;2023-11-19T12:16:22;60.00;;;31.35;;
41623;SDS011;27319;50.306;18.926;2023-11-19T12:20:23;63.38;;;30.17;;
41623;SDS011;27319;50.306;18.926;2023-11-19T12:24:23;59.10;;;30.60;;
41623;SDS011;27319;50.306;18.926;2023-11-19T12:28:24;53.00;;;29.00;;
41623;SDS011;27319;50.306;18.926;2023-11-19T12:31:27;53.63;;;27.92;;
41623;SDS011;27319;50.306;18.926;2023-11-19T12:35:28;54.10;;;27.33;;
41623;SDS011;27319;50.306;18.926;2023-11-19T12:39:30;50.80;;;26.70;;
41623;SDS011;27319;50.306;18.926;2023-11-19T12:43:30;53.80;;;28.70;;
41623;SDS011;27319;50.306;18.926;2023-11-19T12:47:30;55.47;;;29.40;;
41623;SDS011;27319;50.306;18.926;2023-11-19T12:50:49;52.95;;;28.73;;
41623;SDS011;27319;50.306;18.926;2023-11-19T12:53:55;47.75;;;26.67;;
41623;SDS011;27319;50.306;18.926;2023-11-19T12:57:56;49.22;;;26.27;;
41623;SDS011;27319;50.306;18.926;2023-11-19T13:02:11;49.55;;;24.50;;
41623;SDS011;27319;50.306;18.926;2023-11-19T13:06:11;41.90;;;23.33;;
41623;SDS011;27319;50.306;18.926;2023-11-19T13:10:11;46.83;;;21.15;;
41623;SDS011;27319;50.306;18.926;2023-11-19T13:14:12;40.83;;;21.98;;
41623;SDS011;27319;50.306;18.926;2023-11-19T13:18:18;38.08;;;20.23;;
41623;SDS011;27319;50.306;18.926;2023-11-19T13:22:19;40.30;;;21.95;;
41623;SDS011;27319;50.306;18.926;2023-11-19T13:25:27;39.70;;;21.42;;
41623;SDS011;27319;50.306;18.926;2023-11-19T13:29:28;41.35;;;21.92;;
41623;SDS011;27319;50.306;18.926;2023-11-19T13:33:29;40.88;;;22.85;;
41623;SDS011;27319;50.306;18.926;2023-11-19T13:36:30;47.75;;;22.98;;
41623;SDS011;27319;50.306;18.926;2023-11-19T13:39:31;47.10;;;23.30;;
41623;SDS011;27319;50.306;18.926;2023-11-19T13:43:32;47.78;;;22.48;;
41623;SDS011;27319;50.306;18.926;2023-11-19T13:47:33;40.95;;;22.70;;
41623;SDS011;27319;50.306;18.926;2023-11-19T13:51:34;46.63;;;24.73;;
41623;SDS011;27319;50.306;18.926;2023-11-19T13:55:34;52.83;;;23.85;;
41623;SDS011;27319;50.306;18.926;2023-11-19T13:59:39;52.65;;;27.65;;
41623;SDS011;27319;50.306;18.926;2023-11-19T14:03:36;48.42;;;26.23;;
41623;SDS011;27319;50.306;18.926;2023-11-19T14:07:37;48.85;;;26.10;;
41623;SDS011;27319;50.306;18.926;2023-11-19T14:11:38;49.47;;;25.20;;
41623;SDS011;27319;50.306;18.926;2023-11-19T14:15:39;43.17;;;22.02;;
41623;SDS011;27319;50.306;18.926;2023-11-19T14:19:39;47.72;;;24.20;;
41623;SDS011;27319;50.306;18.926;2023-11-19T14:23:40;36.88;;;19.80;;
41623;SDS011;27319;50.306;18.926;2023-11-19T14:27:42;39.38;;;18.55;;
41623;SDS011;27319;50.306;18.926;2023-11-19T14:31:42;31.25;;;18.70;;
41623;SDS011;27319;50.306;18.926;2023-11-19T14:35:43;31.55;;;17.15;;
41623;SDS011;27319;50.306;18.926;2023-11-19T14:39:44;32.58;;;17.48;;
41623;SDS011;27319;50.306;18.926;2023-11-19T14:43:45;27.63;;;15.75;;
41623;SDS011;27319;50.306;18.926;2023-11-19T14:47:45;24.02;;;14.45;;
41623;SDS011;27319;50.306;18.926;2023-11-19T14:51:02;28.75;;;16.38;;
41623;SDS011;27319;50.306;18.926;2023-11-19T14:54:13;27.52;;;15.88;;
41623;SDS011;27319;50.306;18.926;2023-11-19T14:58:14;31.27;;;18.65;;
41623;SDS011;27319;50.306;18.926;2023-11-19T15:01:30;56.80;;;29.00;;
41623;SDS011;27319;50.306;18.926;2023-11-19T15:05:31;28.05;;;18.05;;
41623;SDS011;27319;50.306;18.926;2023-11-19T15:09:32;36.75;;;18.05;;
41623;SDS011;27319;50.306;18.926;2023-11-19T15:13:33;48.67;;;22.40;;
41623;SDS011;27319;50.306;18.926;2023-11-19T15:17:35;34.90;;;19.35;;
41623;SDS011;27319;50.306;18.926;2023-11-19T15:21:36;27.10;;;15.55;;
41623;SDS011;27319;50.306;18.926;2023-11-19T15:25:18;28.00;;;16.17;;
41623;SDS011;27319;50.306;18.926;2023-11-19T15:29:20;34.45;;;20.00;;
41623;SDS011;27319;50.306;18.926;2023-11-19T15:33:02;31.83;;;21.25;;
41623;SDS011;27319;50.306;18.926;2023-11-19T15:37:03;31.02;;;16.15;;
41623;SDS011;27319;50.306;18.926;2023-11-19T15:41:03;27.52;;;15.32;;
41623;SDS011;27319;50.306;18.926;2023-11-19T15:45:05;31.90;;;19.08;;
41623;SDS011;27319;50.306;18.926;2023-11-19T15:49:05;30.27;;;15.90;;
41623;SDS011;27319;50.306;18.926;2023-11-19T15:53:06;32.72;;;19.20;;
41623;SDS011;27319;50.306;18.926;2023-11-19T15:57:07;24.55;;;14.10;;
41623;SDS011;27319;50.306;18.926;2023-11-19T16:00:51;34.70;;;19.20;;
41623;SDS011;27319;50.306;18.926;2023-11-19T16:04:52;31.85;;;17.52;;
41623;SDS011;27319;50.306;18.926;2023-11-19T16:08:53;49.17;;;26.67;;
41623;SDS011;27319;50.306;18.926;2023-11-19T16:12:54;32.63;;;19.38;;
41623;SDS011;27319;50.306;18.926;2023-11-19T16:16:55;37.33;;;22.08;;
41623;SDS011;27319;50.306;18.926;2023-11-19T16:20:56;31.55;;;18.10;;
41623;SDS011;27319;50.306;18.926;2023-11-19T16:24:56;30.15;;;17.17;;
41623;SDS011;27319;50.306;18.926;2023-11-19T16:28:57;30.40;;;17.98;;
41623;SDS011;27319;50.306;18.926;2023-11-19T16:32:58;27.20;;;16.08;;
41623;SDS011;27319;50.306;18.926;2023-11-19T16:36:59;28.50;;;16.75;;
41623;SDS011;27319;50.306;18.926;2023-11-19T16:40:59;26.92;;;16.85;;
41623;SDS011;27319;50.306;18.926;2023-11-19T16:45:00;30.35;;;17.25;;
41623;SDS011;27319;50.306;18.926;2023-11-19T16:48:01;30.95;;;18.35;;
41623;SDS011;27319;50.306;18.926;2023-11-19T16:51:13;30.92;;;17.90;;
41623;SDS011;27319;50.306;18.926;2023-11-19T16:54:14;38.47;;;22.45;;
41623;SDS011;27319;50.306;18.926;2023-11-19T16:58:15;30.15;;;17.33;;
41623;SDS011;27319;50.306;18.926;2023-11-19T17:02:16;29.08;;;18.30;;
41623;SDS011;27319;50.306;18.926;2023-11-19T17:06:18;31.95;;;19.85;;
41623;SDS011;27319;50.306;18.926;2023-11-19T17:10:23;30.88;;;18.33;;
41623;SDS011;27319;50.306;18.926;2023-11-19T17:14:29;27.40;;;17.60;;
41623;SDS011;27319;50.306;18.926;2023-11-19T17:18:29;32.75;;;19.73;;
41623;SDS011;27319;50.306;18.926;2023-11-19T17:22:30;29.20;;;18.25;;
41623;SDS011;27319;50.306;18.926;2023-11-19T17:26:30;32.13;;;19.80;;
41623;SDS011;27319;50.306;18.926;2023-11-19T17:30:31;32.85;;;20.00;;
41623;SDS011;27319;50.306;18.926;2023-11-19T17:34:32;38.90;;;21.25;;
41623;SDS011;27319;50.306;18.926;2023-11-19T17:38:33;38.40;;;23.13;;
41623;SDS011;27319;50.306;18.926;2023-11-19T17:42:34;45.58;;;25.38;;
41623;SDS011;27319;50.306;18.926;2023-11-19T17:46:34;39.95;;;23.45;;
41623;SDS011;27319;50.306;18.926;2023-11-19T17:50:35;38.03;;;21.13;;
41623;SDS011;27319;50.306;18.926;2023-11-19T17:54:36;52.70;;;26.83;;
41623;SDS011;27319;50.306;18.926;2023-11-19T17:58:37;52.58;;;23.88;;
41623;SDS011;27319;50.306;18.926;2023-11-19T18:02:38;38.90;;;21.42;;
41623;SDS011;27319;50.306;18.926;2023-11-19T18:06:39;40.13;;;20.70;;
41623;SDS011;27319;50.306;18.926;2023-11-19T18:10:39;47.38;;;25.95;;
41623;SDS011;27319;50.306;18.926;2023-11-19T18:14:41;32.85;;;18.05;;
41623;SDS011;27319;50.306;18.926;2023-11-19T18:18:41;32.13;;;16.55;;
41623;SDS011;27319;50.306;18.926;2023-11-19T18:22:43;35.30;;;18.25;;
41623;SDS011;27319;50.306;18.926;2023-11-19T18:26:43;28.40;;;16.67;;
41623;SDS011;27319;50.306;18.926;2023-11-19T18:30:44;33.65;;;19.02;;
41623;SDS011;27319;50.306;18.926;2023-11-19T18:34:45;39.30;;;19.80;;
41623;SDS011;27319;50.306;18.926;2023-11-19T18:38:46;41.88;;;21.98;;
41623;SDS011;27319;50.306;18.926;2023-11-19T18:42:47;41.70;;;23.13;;
41623;SDS011;27319;50.306;18.926;2023-11-19T18:46:47;39.97;;;20.40;;
41623;SDS011;27319;50.306;18.926;2023-11-19T18:50:48;28.73;;;17.17;;
41623;SDS011;27319;50.306;18.926;2023-11-19T18:54:49;35.95;;;20.30;;
41623;SDS011;27319;50.306;18.926;2023-11-19T18:58:50;37.80;;;19.33;;
41623;SDS011;27319;50.306;18.926;2023-11-19T19:02:51;38.08;;;19.05;;
41623;SDS011;27319;50.306;18.926;2023-11-19T19:06:51;33.03;;;19.13;;
41623;SDS011;27319;50.306;18.926;2023-11-19T19:10:52;40.80;;;19.55;;
41623;SDS011;27319;50.306;18.926;2023-11-19T19:14:58;34.58;;;17.80;;
41623;SDS011;27319;50.306;18.926;2023-11-19T19:18:59;32.63;;;18.55;;
41623;SDS011;27319;50.306;18.926;2023-11-19T19:22:59;35.85;;;19.88;;
41623;SDS011;27319;50.306;18.926;2023-11-19T19:27:00;31.83;;;17.88;;
41623;SDS011;27319;50.306;18.926;2023-11-19T19:31:01;33.60;;;19.65;;
41623;SDS011;27319;50.306;18.926;2023-11-19T19:35:02;41.08;;;22.98;;
41623;SDS011;27319;50.306;18.926;2023-11-19T19:39:03;38.03;;;21.30;;
41623;SDS011;27319;50.306;18.926;2023-11-19T19:43:04;38.65;;;19.95;;
41623;SDS011;27319;50.306;18.926;2023-11-19T19:47:05;36.17;;;19.60;;
41623;SDS011;27319;50.306;18.926;2023-11-19T19:51:06;45.80;;;20.83;;
41623;SDS011;27319;50.306;18.926;2023-11-19T19:55:06;35.67;;;18.88;;
41623;SDS011;27319;50.306;18.926;2023-11-19T19:59:07;40.30;;;20.52;;
41623;SDS011;27319;50.306;18.926;2023-11-19T20:02:09;48.97;;;29.50;;
41623;SDS011;27319;50.306;18.926;2023-11-19T20:06:10;36.97;;;20.58;;
41623;SDS011;27319;50.306;18.926;2023-11-19T20:10:19;40.95;;;20.73;;
41623;SDS011;27319;50.306;18.926;2023-11-19T20:14:20;46.70;;;23.17;;
41623;SDS011;27319;50.306;18.926;2023-11-19T20:18:21;48.47;;;24.63;;
41623;SDS011;27319;50.306;18.926;2023-11-19T20:22:22;77.97;;;34.38;;
41623;SDS011;27319;50.306;18.926;2023-11-19T20:26:23;61.85;;;29.55;;
41623;SDS011;27319;50.306;18.926;2023-11-19T20:30:23;61.97;;;30.27;;
41623;SDS011;27319;50.306;18.926;2023-11-19T20:34:24;98.00;;;41.33;;
41623;SDS011;27319;50.306;18.926;2023-11-19T20:38:25;82.70;;;34.13;;
41623;SDS011;27319;50.306;18.926;2023-11-19T20:42:26;52.20;;;25.98;;
41623;SDS011;27319;50.306;18.926;2023-11-19T20:46:26;45.63;;;22.52;;
41623;SDS011;27319;50.306;18.926;2023-11-19T20:50:27;51.00;;;25.00;;
41623;SDS011;27319;50.306;18.926;2023-11-19T20:54:28;58.25;;;25.42;;
41623;SDS011;27319;50.306;18.926;2023-11-19T20:58:29;52.17;;;24.15;;
41623;SDS011;27319;50.306;18.926;2023-11-19T21:02:29;37.83;;;20.23;;
41623;SDS011;27319;50.306;18.926;2023-11-19T21:06:30;43.40;;;21.70;;
41623;SDS011;27319;50.306;18.926;2023-11-19T21:09:33;49.42;;;23.63;;
41623;SDS011;27319;50.306;18.926;2023-11-19T21:13:33;47.67;;;23.92;;
41623;SDS011;27319;50.306;18.926;2023-11-19T21:17:34;42.28;;;20.40;;
41623;SDS011;27319;50.306;18.926;2023-11-19T21:20:51;47.60;;;25.80;;
41623;SDS011;27319;50.306;18.926;2023-11-19T21:24:51;52.05;;;24.35;;
41623;SDS011;27319;50.306;18.926;2023-11-19T21:28:52;44.00;;;23.35;;
41623;SDS011;27319;50.306;18.926;2023-11-19T21:32:53;62.17;;;31.20;;
41623;SDS011;27319;50.306;18.926;2023-11-19T21:36:54;51.88;;;26.02;;
41623;SDS011;27319;50.306;18.926;2023-11-19T21:40:54;47.90;;;25.17;;
41623;SDS011;27319;50.306;18.926;2023-11-19T21:44:55;41.97;;;20.92;;
41623;SDS011;27319;50.306;18.926;2023-11-19T21:47:56;47.83;;;23.27;;
41623;SDS011;27319;50.306;18.926;2023-11-19T21:51:02;39.83;;;22.02;;
41623;SDS011;27319;50.306;18.926;2023-11-19T21:54:03;33.28;;;19.63;;
41623;SDS011;27319;50.306;18.926;2023-11-19T21:58:04;34.90;;;17.58;;
41623;SDS011;27319;50.306;18.926;2023-11-19T22:02:05;37.05;;;19.50;;
41623;SDS011;27319;50.306;18.926;2023-11-19T22:06:06;30.23;;;16.60;;
41623;SDS011;27319;50.306;18.926;2023-11-19T22:10:06;34.08;;;16.67;;
41623;SDS011;27319;50.306;18.926;2023-11-19T22:14:07;31.13;;;16.77;;
41623;SDS011;27319;50.306;18.926;2023-11-19T22:18:08;34.70;;;18.05;;
41623;SDS011;27319;50.306;18.926;2023-11-19T22:22:09;33.92;;;19.45;;
41623;SDS011;27319;50.306;18.926;2023-11-19T22:26:09;36.80;;;21.13;;
41623;SDS011;27319;50.306;18.926;2023-11-19T22:30:10;44.47;;;20.25;;
41623;SDS011;27319;50.306;18.926;2023-11-19T22:34:11;37.95;;;18.15;;